createdAt,value
2017-10-25T00:00:53.008Z,100811
2017-10-25T00:03:22.886Z,100810
2017-10-25T00:05:52.809Z,100803
2017-10-25T00:08:23.236Z,100811
2017-10-25T00:10:53.107Z,100807
2017-10-25T00:13:23.017Z,100808
2017-10-25T00:15:52.879Z,100805
2017-10-25T00:18:22.762Z,100800
2017-10-25T00:20:52.656Z,100799
2017-10-25T00:23:22.805Z,100803
2017-10-25T00:25:52.655Z,100805
2017-10-25T00:28:22.577Z,100802
2017-10-25T00:30:52.496Z,100809
2017-10-25T00:33:22.710Z,100806
2017-10-25T00:35:52.563Z,100817
2017-10-25T00:38:22.459Z,100804
2017-10-25T00:40:52.489Z,100809
2017-10-25T00:43:22.880Z,100806
2017-10-25T00:45:52.741Z,100801
2017-10-25T00:48:22.629Z,100815
2017-10-25T00:50:52.490Z,100813
2017-10-25T00:53:22.642Z,100818
2017-10-25T00:55:52.520Z,100803
2017-10-25T00:58:22.779Z,100801
2017-10-25T01:00:52.669Z,100793
2017-10-25T01:03:22.601Z,100798
2017-10-25T01:05:52.466Z,100797
2017-10-25T01:08:22.341Z,100790
2017-10-25T01:10:52.182Z,100784
2017-10-25T01:13:22.047Z,100782
2017-10-25T01:15:51.901Z,100788
2017-10-25T01:18:21.817Z,100788
2017-10-25T01:20:52.101Z,100789
2017-10-25T01:23:21.977Z,100786
2017-10-25T01:25:52.181Z,100783
2017-10-25T01:28:22.095Z,100788
2017-10-25T01:30:52.369Z,100784
2017-10-25T01:33:22.268Z,100783
2017-10-25T01:35:52.505Z,100780
2017-10-25T01:38:22.378Z,100781
2017-10-25T01:40:52.265Z,100784
2017-10-25T01:43:22.161Z,100784
2017-10-25T01:45:52.050Z,100783
2017-10-25T01:48:22.273Z,100780
2017-10-25T01:50:52.185Z,100779
2017-10-25T01:53:22.099Z,100781
2017-10-25T01:55:52.047Z,100776
2017-10-25T01:58:22.334Z,100780
2017-10-25T02:00:52.209Z,100768
2017-10-25T02:03:22.125Z,100770
2017-10-25T02:05:52.049Z,100777
2017-10-25T02:08:22.338Z,100767
2017-10-25T02:10:52.233Z,100768
2017-10-25T02:13:22.149Z,100771
2017-10-25T02:15:52.052Z,100774
2017-10-25T02:18:21.956Z,100778
2017-10-25T02:20:51.821Z,100766
2017-10-25T02:23:21.747Z,100767
2017-10-25T02:25:51.622Z,100762
2017-10-25T02:28:21.814Z,100750
2017-10-25T02:30:51.697Z,100756
2017-10-25T02:33:21.601Z,100757
2017-10-25T02:35:51.475Z,100745
2017-10-25T02:38:21.672Z,100759
2017-10-25T02:40:51.534Z,100762
2017-10-25T02:43:21.706Z,100757
2017-10-25T02:45:51.559Z,100751
2017-10-25T02:48:21.734Z,100747
2017-10-25T02:50:51.642Z,100745
2017-10-25T02:53:21.513Z,100743
2017-10-25T02:55:51.376Z,100748
2017-10-25T02:58:21.257Z,100741
2017-10-25T03:00:51.378Z,100746
2017-10-25T03:03:21.232Z,100749
2017-10-25T03:05:51.437Z,100751
2017-10-25T03:08:21.368Z,100747
2017-10-25T03:10:51.260Z,100757
2017-10-25T03:13:21.119Z,100754
2017-10-25T03:15:51.024Z,100742
2017-10-25T03:18:21.167Z,100748
2017-10-25T03:20:51.050Z,100747
2017-10-25T03:23:20.921Z,100749
2017-10-25T03:25:50.780Z,100759
2017-10-25T03:28:20.921Z,100752
2017-10-25T03:30:50.797Z,100755
2017-10-25T03:33:21.010Z,100755
2017-10-25T03:35:50.878Z,100756
2017-10-25T03:38:20.847Z,100756
2017-10-25T03:40:50.766Z,100749
2017-10-25T03:43:20.912Z,100758
2017-10-25T03:45:50.809Z,100752
2017-10-25T03:48:20.710Z,100755
2017-10-25T03:50:50.679Z,100749
2017-10-25T03:53:20.929Z,100750
2017-10-25T03:55:50.788Z,100754
2017-10-25T03:58:20.950Z,100753
2017-10-25T04:00:50.850Z,100749
2017-10-25T04:03:20.745Z,100754
2017-10-25T04:05:50.613Z,100764
2017-10-25T04:08:20.819Z,100754
2017-10-25T04:10:50.677Z,100747
2017-10-25T04:13:20.843Z,100750
2017-10-25T04:15:50.721Z,100753
2017-10-25T04:18:20.625Z,100748
2017-10-25T04:20:50.485Z,100746
2017-10-25T04:23:20.639Z,100743
2017-10-25T04:25:50.493Z,100738
2017-10-25T04:28:20.388Z,100739
2017-10-25T04:30:50.310Z,100738
2017-10-25T04:33:20.181Z,100722
2017-10-25T04:35:50.049Z,100728
2017-10-25T04:38:19.929Z,100724
2017-10-25T04:40:50.062Z,100725
2017-10-25T04:43:19.921Z,100717
2017-10-25T04:45:50.138Z,100717
2017-10-25T04:48:20.136Z,100714
2017-10-25T04:50:50.008Z,100716
2017-10-25T04:53:19.913Z,100716
2017-10-25T04:55:50.086Z,100711
2017-10-25T04:58:19.941Z,100706
2017-10-25T05:00:49.829Z,100703
2017-10-25T05:03:19.690Z,100704
2017-10-25T05:05:49.846Z,100703
2017-10-25T05:08:19.717Z,100697
2017-10-25T05:10:49.889Z,100693
2017-10-25T05:13:19.760Z,100689
2017-10-25T05:15:49.653Z,100695
2017-10-25T05:18:19.498Z,100689
2017-10-25T05:20:49.708Z,100678
2017-10-25T05:23:19.564Z,100689
2017-10-25T05:25:49.774Z,100686
2017-10-25T05:28:19.663Z,100676
2017-10-25T05:30:49.535Z,100681
2017-10-25T05:33:19.401Z,100671
2017-10-25T05:35:49.285Z,100668
2017-10-25T05:38:19.158Z,100676
2017-10-25T05:40:49.014Z,100671
2017-10-25T05:43:19.171Z,100670
2017-10-25T05:45:49.043Z,100666
2017-10-25T05:48:19.312Z,100668
2017-10-25T05:50:49.176Z,100671
2017-10-25T05:53:19.335Z,100651
2017-10-25T05:55:49.198Z,100661
2017-10-25T05:58:19.095Z,100672
2017-10-25T06:00:48.956Z,100661
2017-10-25T06:03:18.826Z,100667
2017-10-25T06:05:49.031Z,100675
2017-10-25T06:08:18.906Z,100681
2017-10-25T06:10:48.834Z,100674
2017-10-25T06:13:18.688Z,100677
2017-10-25T06:15:48.845Z,100680
2017-10-25T06:18:18.759Z,100687
2017-10-25T06:20:48.901Z,100691
2017-10-25T06:23:18.836Z,100676
2017-10-25T06:25:49.038Z,100677
2017-10-25T06:28:18.913Z,100676
2017-10-25T06:30:49.166Z,100680
2017-10-25T06:33:19.026Z,100679
2017-10-25T06:35:49.246Z,100669
2017-10-25T06:38:19.141Z,100669
2017-10-25T06:40:49.006Z,100668
2017-10-25T06:43:18.886Z,100657
2017-10-25T06:45:48.774Z,100664
2017-10-25T06:48:18.678Z,100667
2017-10-25T06:50:48.567Z,100661
2017-10-25T06:53:18.441Z,100668
2017-10-25T06:55:48.579Z,100668
2017-10-25T06:58:18.443Z,100668
2017-10-25T07:00:48.332Z,100672
2017-10-25T07:03:18.239Z,100669
2017-10-25T07:05:48.107Z,100674
2017-10-25T07:08:17.987Z,100682
2017-10-25T07:10:47.928Z,100671
2017-10-25T07:13:18.373Z,100681
2017-10-25T07:15:48.310Z,100688
2017-10-25T07:18:18.462Z,100685
2017-10-25T07:20:48.340Z,100689
2017-10-25T07:23:18.231Z,100696
2017-10-25T07:25:48.135Z,100692
2017-10-25T07:28:17.998Z,100689
2017-10-25T07:30:48.173Z,100695
2017-10-25T07:33:18.028Z,100703
2017-10-25T07:35:47.961Z,100707
2017-10-25T07:38:17.841Z,100706
2017-10-25T07:40:47.999Z,100695
2017-10-25T07:43:17.861Z,100696
2017-10-25T07:45:48.015Z,100683
2017-10-25T07:48:17.946Z,100675
2017-10-25T07:50:48.157Z,100670
2017-10-25T07:53:18.010Z,100659
2017-10-25T07:55:48.149Z,100659
2017-10-25T07:58:17.994Z,100649
2017-10-25T08:00:48.138Z,100671
2017-10-25T08:03:18.012Z,100654
2017-10-25T08:05:48.025Z,100647
2017-10-25T08:08:17.878Z,100655
2017-10-25T08:10:48.180Z,100627
2017-10-25T08:13:18.082Z,100654
2017-10-25T08:15:48.219Z,100642
2017-10-25T08:18:18.115Z,100622
2017-10-25T08:20:47.990Z,100629
2017-10-25T08:23:17.856Z,100638
2017-10-25T08:25:47.736Z,100635
2017-10-25T08:28:17.602Z,100645
2017-10-25T08:30:47.484Z,100647
2017-10-25T08:33:17.345Z,100646
2017-10-25T08:35:47.273Z,100649
2017-10-25T08:38:17.130Z,100648
2017-10-25T08:40:47.005Z,100643
2017-10-25T08:43:17.020Z,100655
2017-10-25T08:45:46.980Z,100647
2017-10-25T08:48:16.910Z,100639
2017-10-25T08:50:46.830Z,100656
2017-10-25T08:53:16.765Z,100672
2017-10-25T08:55:46.616Z,100676
2017-10-25T08:58:16.847Z,100645
2017-10-25T09:00:46.758Z,100662
2017-10-25T09:03:16.636Z,100663
2017-10-25T09:05:46.483Z,100649
2017-10-25T09:08:16.515Z,100655
2017-10-25T09:10:46.385Z,100651
2017-10-25T09:13:16.247Z,100640
2017-10-25T09:15:46.226Z,100645
2017-10-25T09:18:16.093Z,100648
2017-10-25T09:20:46.021Z,100645
2017-10-25T09:23:15.881Z,100646
2017-10-25T09:25:45.764Z,100641
2017-10-25T09:28:15.634Z,100652
2017-10-25T09:30:45.520Z,100650
2017-10-25T09:33:15.481Z,100649
2017-10-25T09:35:45.344Z,100644
2017-10-25T09:38:15.194Z,100633
2017-10-25T09:40:45.073Z,100630
2017-10-25T09:43:14.942Z,100634
2017-10-25T09:45:44.860Z,100638
2017-10-25T09:48:14.897Z,100631
2017-10-25T09:50:44.835Z,100629
2017-10-25T09:53:14.769Z,100629
2017-10-25T09:55:44.661Z,100642
2017-10-25T09:58:14.633Z,100637
2017-10-25T10:00:44.504Z,100642
2017-10-25T10:03:14.509Z,100655
2017-10-25T10:05:45.236Z,100648
2017-10-25T10:08:15.113Z,100663
2017-10-25T10:10:45.021Z,100656
2017-10-25T10:13:15.106Z,100659
2017-10-25T10:15:45.015Z,100664
2017-10-25T10:18:14.929Z,100664
2017-10-25T10:20:44.794Z,100673
2017-10-25T10:23:14.701Z,100679
2017-10-25T10:25:44.774Z,100684
2017-10-25T10:28:14.659Z,100668
2017-10-25T10:30:44.515Z,100680
2017-10-25T10:33:14.642Z,100682
2017-10-25T10:35:44.560Z,100685
2017-10-25T10:38:14.431Z,100693
2017-10-25T10:40:44.352Z,100693
2017-10-25T10:43:14.445Z,100688
2017-10-25T10:45:44.302Z,100692
2017-10-25T10:48:14.175Z,100690
2017-10-25T10:50:44.048Z,100698
2017-10-25T10:53:14.029Z,100692
2017-10-25T10:55:43.922Z,100686
2017-10-25T10:58:13.789Z,100689
2017-10-25T11:00:43.848Z,100696
2017-10-25T11:03:13.780Z,100694
2017-10-25T11:05:43.745Z,100685
2017-10-25T11:08:13.677Z,100689
2017-10-25T11:10:43.561Z,100686
2017-10-25T11:13:13.410Z,100677
2017-10-25T11:15:43.353Z,100688
2017-10-25T11:18:13.245Z,100682
2017-10-25T11:20:43.234Z,100676
2017-10-25T11:23:13.114Z,100691
2017-10-25T11:25:42.975Z,100685
2017-10-25T11:28:12.915Z,100692
2017-10-25T11:30:42.776Z,100693
2017-10-25T11:33:12.630Z,100696
2017-10-25T11:35:42.477Z,100696
2017-10-25T11:38:12.350Z,100700
2017-10-25T11:40:42.262Z,100699
2017-10-25T11:43:12.181Z,100695
2017-10-25T11:45:42.089Z,100698
2017-10-25T11:48:11.942Z,100693
2017-10-25T11:50:41.864Z,100688
2017-10-25T11:53:11.743Z,100685
2017-10-25T11:55:41.657Z,100692
2017-10-25T11:58:11.518Z,100702
2017-10-25T12:00:41.690Z,100699
2017-10-25T12:03:11.583Z,100691
2017-10-25T12:05:41.472Z,100702
2017-10-25T12:08:11.325Z,100714
2017-10-25T12:10:41.328Z,100708
2017-10-25T12:13:11.183Z,100708
2017-10-25T12:15:41.079Z,100722
2017-10-25T12:18:10.971Z,100721
2017-10-25T12:20:40.829Z,100728
2017-10-25T12:23:10.715Z,100722
2017-10-25T12:25:40.586Z,100736
2017-10-25T12:28:10.479Z,100740
2017-10-25T12:30:40.350Z,100741
2017-10-25T12:33:10.237Z,100751
2017-10-25T12:35:40.097Z,100764
2017-10-25T12:38:09.945Z,100757
2017-10-25T12:40:39.856Z,100755
2017-10-25T12:43:09.715Z,100770
2017-10-25T12:45:39.573Z,100762
2017-10-25T12:48:09.442Z,100758
2017-10-25T12:50:39.335Z,100768
2017-10-25T12:53:09.207Z,100770
2017-10-25T12:55:39.079Z,100779
2017-10-25T12:58:08.966Z,100778
2017-10-25T13:00:38.841Z,100785
2017-10-25T13:03:08.749Z,100777
2017-10-25T13:05:38.606Z,100781
2017-10-25T13:08:08.494Z,100786
2017-10-25T13:11:04.257Z,100790
2017-10-25T13:13:37.742Z,100792
2017-10-25T13:16:15.733Z,100807
2017-10-25T13:18:45.614Z,100819
2017-10-25T13:21:15.477Z,100826
2017-10-25T13:23:45.376Z,100825
2017-10-25T13:26:15.240Z,100816
2017-10-25T13:28:45.189Z,100819
2017-10-25T13:31:15.107Z,100843
2017-10-25T13:33:44.972Z,100846
2017-10-25T13:36:15.002Z,100844
2017-10-25T13:38:44.877Z,100848
2017-10-25T13:41:14.790Z,100858
2017-10-25T13:43:44.656Z,100852
2017-10-25T13:46:14.539Z,100860
2017-10-25T13:48:44.436Z,100874
2017-10-25T13:51:14.394Z,100868
2017-10-25T13:53:44.294Z,100859
2017-10-25T13:56:14.177Z,100862
2017-10-25T13:58:44.151Z,100873
2017-10-25T14:01:14.028Z,100872
2017-10-25T14:03:43.977Z,100882
2017-10-25T14:06:13.877Z,100880
2017-10-25T14:08:43.778Z,100889
2017-10-25T14:11:13.622Z,100912
2017-10-25T14:13:43.501Z,100899
2017-10-25T14:16:14.022Z,100929
2017-10-25T14:18:43.972Z,100924
2017-10-25T14:21:13.893Z,100928
2017-10-25T14:23:43.818Z,100934
2017-10-25T14:26:25.431Z,100931
2017-10-25T14:28:55.319Z,100921
2017-10-25T14:31:25.182Z,100920
2017-10-25T14:33:55.170Z,100921
2017-10-25T14:36:25.113Z,100925
2017-10-25T14:38:55.004Z,100921
2017-10-25T14:41:25.140Z,100934
2017-10-25T14:43:55.048Z,100933
2017-10-25T14:46:24.987Z,100942
2017-10-25T14:48:54.931Z,100942
2017-10-25T14:51:24.791Z,100944
2017-10-25T14:53:54.669Z,100947
2017-10-25T14:56:24.846Z,100955
2017-10-25T14:58:54.728Z,100965
2017-10-25T15:01:24.588Z,100972
2017-10-25T15:03:54.487Z,100876
2017-10-25T15:06:24.379Z,100982
2017-10-25T15:08:54.261Z,100980
2017-10-25T15:11:24.163Z,100985
2017-10-25T15:13:54.030Z,100985
2017-10-25T15:16:23.919Z,100985
2017-10-25T15:18:53.847Z,100988
2017-10-25T15:21:23.763Z,100991
2017-10-25T15:23:53.744Z,101009
2017-10-25T15:26:23.701Z,101011
2017-10-25T15:28:53.634Z,101026
2017-10-25T15:31:23.527Z,101019
2017-10-25T15:33:53.389Z,101005
2017-10-25T15:36:24.058Z,101011
2017-10-25T15:38:53.932Z,101009
2017-10-25T15:41:23.826Z,101022
2017-10-25T15:43:53.886Z,101013
2017-10-25T15:46:23.887Z,101032
2017-10-25T15:48:53.784Z,101034
2017-10-25T15:51:23.768Z,101040
2017-10-25T15:53:53.629Z,101041
2017-10-25T15:56:23.543Z,101046
2017-10-25T15:58:53.448Z,101051
2017-10-25T16:01:23.351Z,101053
2017-10-25T16:03:53.263Z,101051
2017-10-25T16:06:23.139Z,101045
2017-10-25T16:08:53.019Z,101054
2017-10-25T16:11:23.044Z,101060
2017-10-25T16:13:53.103Z,101061
2017-10-25T16:16:23.009Z,101052
2017-10-25T16:18:52.932Z,101059
2017-10-25T16:21:22.929Z,101059
2017-10-25T16:23:52.816Z,101053
2017-10-25T16:26:22.729Z,101061
2017-10-25T16:28:52.642Z,101060
2017-10-25T16:31:22.722Z,101067
2017-10-25T16:33:52.749Z,101063
2017-10-25T16:36:22.715Z,101067
2017-10-25T16:38:52.701Z,101075
2017-10-25T16:41:22.591Z,101072
2017-10-25T16:43:52.620Z,101071
2017-10-25T16:46:22.474Z,101076
2017-10-25T16:48:52.431Z,101088
2017-10-25T16:51:22.357Z,101088
2017-10-25T16:53:52.236Z,101093
2017-10-25T16:56:22.133Z,101091
2017-10-25T16:58:51.989Z,101104
2017-10-25T17:01:21.928Z,101111
2017-10-25T17:03:51.870Z,101104
2017-10-25T17:06:21.887Z,101105
2017-10-25T17:08:52.430Z,101111
2017-10-25T17:11:26.305Z,101110
2017-10-25T17:13:56.573Z,101114
2017-10-25T17:16:26.494Z,101117
2017-10-25T17:18:56.440Z,101133
2017-10-25T17:21:26.346Z,101136
2017-10-25T17:23:56.239Z,101144
2017-10-25T17:26:26.118Z,101144
2017-10-25T17:28:56.044Z,101149
2017-10-25T17:31:25.929Z,101154
2017-10-25T17:33:55.889Z,101164
2017-10-25T17:36:25.765Z,101162
2017-10-25T17:38:55.654Z,101165
2017-10-25T17:41:25.531Z,101166
2017-10-25T17:43:55.538Z,101170
2017-10-25T17:46:25.433Z,101180
2017-10-25T17:48:55.316Z,101179
2017-10-25T17:51:25.225Z,101181
2017-10-25T17:53:55.080Z,101178
2017-10-25T17:56:25.132Z,101177
2017-10-25T17:58:55.010Z,101188
2017-10-25T18:01:24.918Z,101185
2017-10-25T18:03:54.847Z,101198
2017-10-25T18:06:24.914Z,101191
2017-10-25T18:08:54.930Z,101191
2017-10-25T18:11:25.012Z,101195
2017-10-25T18:13:54.902Z,101191
2017-10-25T18:16:24.821Z,101193
2017-10-25T18:18:54.703Z,101201
2017-10-25T18:21:25.120Z,101199
2017-10-25T18:23:55.004Z,101212
2017-10-25T18:26:24.889Z,101211
2017-10-25T18:28:54.762Z,101225
2017-10-25T18:31:24.783Z,101220
2017-10-25T18:33:54.683Z,101228
2017-10-25T18:36:24.571Z,101216
2017-10-25T18:38:54.548Z,101229
2017-10-25T18:41:24.546Z,101222
2017-10-25T18:43:54.479Z,101211
2017-10-25T18:46:24.363Z,101228
2017-10-25T18:48:54.233Z,101226
2017-10-25T18:51:24.351Z,101230
2017-10-25T18:53:54.863Z,101235
2017-10-25T18:56:24.826Z,101241
2017-10-25T18:58:54.773Z,101221
2017-10-25T19:01:25.680Z,101220
2017-10-25T19:03:55.591Z,101227
2017-10-25T19:06:25.480Z,101216
2017-10-25T19:08:55.722Z,101229
2017-10-25T19:11:25.681Z,101224
2017-10-25T19:13:55.604Z,101218
2017-10-25T19:16:25.497Z,101235
2017-10-25T19:18:55.381Z,101231
2017-10-25T19:21:25.464Z,101250
2017-10-25T19:23:55.367Z,101254
2017-10-25T19:26:25.340Z,101255
2017-10-25T19:28:55.234Z,101250
2017-10-25T19:31:25.239Z,101245
2017-10-25T19:33:55.206Z,101238
2017-10-25T19:36:25.123Z,101250
2017-10-25T19:38:54.998Z,101255
2017-10-25T19:41:24.927Z,101253
2017-10-25T19:43:54.831Z,101236
2017-10-25T19:46:24.714Z,101256
2017-10-25T19:48:54.611Z,101262
2017-10-25T19:51:24.562Z,101262
2017-10-25T19:53:54.434Z,101269
2017-10-25T19:56:24.536Z,101268
2017-10-25T19:58:54.407Z,101265
2017-10-25T20:01:24.307Z,101268
2017-10-25T20:03:54.199Z,101280
2017-10-25T20:06:24.171Z,101281
2017-10-25T20:08:54.070Z,101294
2017-10-25T20:11:23.997Z,101294
2017-10-25T20:13:53.895Z,101291
2017-10-25T20:16:23.769Z,101295
2017-10-25T20:18:53.733Z,101303
2017-10-25T20:21:23.599Z,101306
2017-10-25T20:23:53.507Z,101309
2017-10-25T20:26:23.566Z,101318
2017-10-25T20:28:53.456Z,101309
2017-10-25T20:31:23.364Z,101317
2017-10-25T20:33:53.242Z,101308
2017-10-25T20:36:23.250Z,101292
2017-10-25T20:38:53.216Z,101316
2017-10-25T20:41:23.107Z,101316
2017-10-25T20:43:53.063Z,101319
2017-10-25T20:46:23.051Z,101322
2017-10-25T20:48:52.958Z,101321
2017-10-25T20:51:22.849Z,101324
2017-10-25T20:53:52.735Z,101330
2017-10-25T20:56:22.664Z,101330
2017-10-25T20:58:52.575Z,101327
2017-10-25T21:01:22.482Z,101322
2017-10-25T21:03:52.340Z,101324
2017-10-25T21:06:22.247Z,101326
2017-10-25T21:08:52.122Z,101323
2017-10-25T21:11:22.043Z,101326
2017-10-25T21:13:51.945Z,101317
2017-10-25T21:16:22.663Z,101325
2017-10-25T21:18:52.708Z,101324
2017-10-25T21:21:22.576Z,101328
2017-10-25T21:23:52.475Z,101311
2017-10-25T21:26:22.349Z,101321
2017-10-25T21:28:52.234Z,101321
2017-10-25T21:31:22.104Z,101320
2017-10-25T21:33:51.973Z,101313
2017-10-25T21:36:22.527Z,101307
2017-10-25T21:38:52.441Z,101323
2017-10-25T21:41:22.334Z,101323
2017-10-25T21:43:52.199Z,101320
2017-10-25T21:46:22.099Z,101331
2017-10-25T21:48:51.971Z,101326
2017-10-25T21:51:21.842Z,101321
2017-10-25T21:53:51.719Z,101323
2017-10-25T21:56:21.642Z,101332
2017-10-25T21:58:51.559Z,101339
2017-10-25T22:01:21.432Z,101338
2017-10-25T22:03:51.350Z,101341
2017-10-25T22:06:21.213Z,101349
2017-10-25T22:08:51.066Z,101345
2017-10-25T22:11:20.915Z,101345
2017-10-25T22:13:50.777Z,101343
2017-10-25T22:16:20.664Z,101346
2017-10-25T22:18:50.565Z,101339
2017-10-25T22:21:20.590Z,101339
2017-10-25T22:23:50.450Z,101350
2017-10-25T22:26:20.338Z,101364
2017-10-25T22:28:50.261Z,101352
2017-10-25T22:31:20.138Z,101345
2017-10-25T22:33:49.986Z,101342
2017-10-25T22:36:19.841Z,101348
2017-10-25T22:38:49.710Z,101348
2017-10-25T22:41:19.566Z,101349
2017-10-25T22:43:49.479Z,101361
2017-10-25T22:46:19.413Z,101352
2017-10-25T22:48:49.296Z,101345
2017-10-25T22:51:19.162Z,101346
2017-10-25T22:53:49.046Z,101359
2017-10-25T22:56:18.931Z,101361
2017-10-25T22:58:48.800Z,101351
2017-10-25T23:01:18.731Z,101347
2017-10-25T23:03:48.590Z,101364
2017-10-25T23:06:18.485Z,101374
2017-10-25T23:08:48.413Z,101373
2017-10-25T23:11:18.285Z,101358
2017-10-25T23:13:48.138Z,101356
2017-10-25T23:16:18.006Z,101344
2017-10-25T23:18:47.883Z,101341
2017-10-25T23:21:17.728Z,101349
2017-10-25T23:23:47.631Z,101357
2017-10-25T23:26:17.475Z,101359
2017-10-25T23:28:47.366Z,101352
2017-10-25T23:31:17.209Z,101348
2017-10-25T23:33:47.055Z,101349
2017-10-25T23:36:16.911Z,101369
2017-10-25T23:38:46.893Z,101359
2017-10-25T23:41:16.778Z,101357
2017-10-25T23:43:46.646Z,101355
2017-10-25T23:46:16.566Z,101355
2017-10-25T23:48:46.430Z,101360
2017-10-25T23:51:16.299Z,101348
2017-10-25T23:53:46.209Z,101357
2017-10-25T23:56:16.066Z,101361
2017-10-25T23:58:45.976Z,101359
